Time;durP1;ratioP1;P1;durP2;ratioP2;P2;SDS_P1;SDS_P2;PMS_P1;PMS_P2;Temp;Humidity;BMP_temperature;BMP_pressure;BME280_temperature;BME280_humidity;BME280_pressure;Samples;Min_cycle;Max_cycle;Signal;HPM_P1;HPM_P2
2021/03/09 00:00:12;;;;;;;17.60;13.95;;;7.90;61.80;8.20;99543.00;;;;341465;28;87612;-86
2021/03/09 00:00:23;;;;;;;16.83;13.70;;;7.90;61.40;8.10;99546.00;;;;341380;28;92204;-86
2021/03/09 00:00:35;;;;;;;15.70;13.57;;;7.90;61.30;8.00;99542.00;;;;341568;28;86933;-86
2021/03/09 00:00:47;;;;;;;16.17;13.60;;;7.90;61.30;8.10;99546.00;;;;341447;28;88738;-86
2021/03/09 00:00:59;;;;;;;16.15;13.40;;;7.90;61.50;8.10;99547.00;;;;344334;28;85161;-87
2021/03/09 00:01:10;;;;;;;15.98;13.38;;;7.90;61.50;8.00;99552.00;;;;341423;28;89437;-86
2021/03/09 00:01:22;;;;;;;15.77;13.15;;;7.90;61.70;8.10;99551.00;;;;341607;28;86011;-87
2021/03/09 00:01:33;;;;;;;16.27;13.02;;;7.90;61.60;8.10;99541.00;;;;344039;28;91747;-86
2021/03/09 00:01:46;;;;;;;15.98;13.05;;;7.90;61.60;8.00;99545.00;;;;341418;28;85472;-85
2021/03/09 00:01:57;;;;;;;15.50;13.48;;;7.90;61.40;8.00;99544.00;;;;339947;28;91634;-86
2021/03/09 00:02:09;;;;;;;16.15;13.77;;;7.90;61.30;7.90;99552.00;;;;344281;28;87341;-86
2021/03/09 00:02:21;;;;;;;16.95;13.60;;;7.90;61.20;8.00;99542.00;;;;341151;28;92162;-86
2021/03/09 00:02:33;;;;;;;17.55;13.52;;;7.80;61.10;8.00;99549.00;;;;345445;28;84044;-85
2021/03/09 00:02:44;;;;;;;18.63;14.32;;;7.80;61.20;8.00;99547.00;;;;340835;28;92054;-86
2021/03/09 00:02:56;;;;;;;19.50;14.90;;;7.80;61.20;8.00;99547.00;;;;342971;28;85484;-86
2021/03/09 00:03:09;;;;;;;18.38;14.25;;;7.80;61.40;7.90;99547.00;;;;339796;28;90911;-85
2021/03/09 00:03:20;;;;;;;17.25;13.38;;;7.80;62.00;8.00;99543.00;;;;342904;28;87106;-86
2021/03/09 00:03:32;;;;;;;17.17;13.55;;;7.80;61.50;8.00;99537.00;;;;342568;28;90125;-86
2021/03/09 00:03:44;;;;;;;16.33;13.18;;;7.80;61.50;8.00;99545.00;;;;341476;28;87523;-86
2021/03/09 00:03:55;;;;;;;16.77;13.60;;;7.70;61.50;8.00;99548.00;;;;339949;28;91036;-86
2021/03/09 00:04:07;;;;;;;16.70;13.75;;;7.70;61.40;8.00;99540.00;;;;342929;28;84783;-88
2021/03/09 00:04:18;;;;;;;16.90;13.70;;;7.70;61.40;7.90;99543.00;;;;341110;28;90654;-87
2021/03/09 00:04:30;;;;;;;16.23;13.18;;;7.80;61.50;8.00;99537.00;;;;340266;28;87991;-86
2021/03/09 00:04:41;;;;;;;16.50;13.10;;;7.80;61.50;7.90;99544.00;;;;341314;28;90599;-87
2021/03/09 00:04:52;;;;;;;18.13;13.43;;;7.80;61.50;8.00;99538.00;;;;342977;28;86069;-86
2021/03/09 00:05:07;;;;;;;18.27;13.80;;;7.70;61.50;8.00;99546.00;;;;341017;28;88718;-86
2021/03/09 00:05:18;;;;;;;16.92;13.68;;;7.80;61.70;8.10;99544.00;;;;340259;28;84446;-86
2021/03/09 00:05:30;;;;;;;16.63;13.45;;;7.80;61.70;8.10;99537.00;;;;342624;28;89038;-86
2021/03/09 00:05:41;;;;;;;16.95;13.40;;;7.80;61.80;8.10;99549.00;;;;341003;28;83702;-86
2021/03/09 00:05:53;;;;;;;16.88;13.70;;;7.80;61.70;8.10;99542.00;;;;343998;28;90958;-86
2021/03/09 00:06:05;;;;;;;17.08;14.25;;;7.80;61.80;7.90;99542.00;;;;341647;28;84462;-86
2021/03/09 00:06:16;;;;;;;17.52;13.95;;;7.80;61.80;8.00;99540.00;;;;342713;28;88632;-86
2021/03/09 00:06:27;;;;;;;16.80;13.60;;;7.80;61.80;8.00;99544.00;;;;341666;28;85459;-86
2021/03/09 00:06:39;;;;;;;16.67;14.00;;;7.80;61.70;8.10;99547.00;;;;341257;28;92196;-86
2021/03/09 00:06:51;;;;;;;16.50;14.05;;;7.80;61.90;8.10;99542.00;;;;344147;28;85536;-86
2021/03/09 00:07:03;;;;;;;16.92;14.18;;;7.80;62.00;8.00;99543.00;;;;339943;28;91076;-86
2021/03/09 00:07:14;;;;;;;18.27;14.45;;;7.80;61.80;8.00;99542.00;;;;342961;28;84198;-86
2021/03/09 00:07:26;;;;;;;17.88;14.60;;;7.80;61.80;8.10;99546.00;;;;341108;28;89345;-86
2021/03/09 00:07:37;;;;;;;17.38;14.60;;;7.80;61.80;8.10;99542.00;;;;342793;28;86408;-86
2021/03/09 00:07:49;;;;;;;17.35;14.57;;;7.80;61.80;8.10;99545.00;;;;338392;28;91873;-86
2021/03/09 00:08:00;;;;;;;16.75;13.88;;;7.80;61.70;8.10;99546.00;;;;341293;28;84764;-86
2021/03/09 00:08:13;;;;;;;16.45;13.40;;;7.80;61.80;8.10;99565.00;;;;339981;28;90240;-87
2021/03/09 00:08:25;;;;;;;16.88;13.60;;;7.80;61.80;8.10;99550.00;;;;341636;28;86076;-86
2021/03/09 00:08:36;;;;;;;16.17;13.35;;;7.80;61.80;8.10;99549.00;;;;339641;28;92199;-86
2021/03/09 00:08:47;;;;;;;16.95;13.95;;;7.80;61.80;7.90;99541.00;;;;342864;28;86689;-86
2021/03/09 00:08:59;;;;;;;17.40;13.88;;;7.80;61.70;8.00;99541.00;;;;342570;28;88322;-86
2021/03/09 00:09:12;;;;;;;18.08;14.05;;;7.80;61.80;7.80;99542.00;;;;341613;28;85988;-86
2021/03/09 00:09:23;;;;;;;16.90;13.57;;;7.80;61.60;7.80;99543.00;;;;339902;28;88816;-85
2021/03/09 00:09:34;;;;;;;17.58;14.07;;;7.70;61.50;7.90;99549.00;;;;342622;28;86547;-86
2021/03/09 00:09:46;;;;;;;16.40;13.13;;;7.70;61.60;7.90;99545.00;;;;338445;28;91440;-86
2021/03/09 00:09:57;;;;;;;16.67;13.13;;;7.70;61.60;8.00;99542.00;;;;341405;28;87318;-86
2021/03/09 00:10:10;;;;;;;17.02;13.15;;;7.70;61.70;8.00;99547.00;;;;342588;28;91193;-86
2021/03/09 00:10:21;;;;;;;16.65;13.10;;;7.70;61.70;8.00;99549.00;;;;340274;28;85698;-86
2021/03/09 00:10:33;;;;;;;16.17;13.23;;;7.70;61.80;8.00;99547.00;;;;341277;28;91495;-86
2021/03/09 00:10:44;;;;;;;16.23;13.35;;;7.70;61.80;8.00;99551.00;;;;344202;28;86230;-87
2021/03/09 00:10:56;;;;;;;16.67;13.82;;;7.70;61.80;8.00;99541.00;;;;344093;28;91743;-86
2021/03/09 00:11:07;;;;;;;15.77;14.02;;;7.70;61.80;8.10;99542.00;;;;342948;28;86375;-86
2021/03/09 00:11:19;;;;;;;16.52;14.18;;;7.70;61.80;8.00;99545.00;;;;344012;28;91395;-86
2021/03/09 00:11:30;;;;;;;16.25;13.68;;;7.70;61.90;7.90;99545.00;;;;340340;28;85016;-86
2021/03/09 00:11:42;;;;;;;17.13;13.48;;;7.70;61.80;7.90;99542.00;;;;341221;28;91841;-87
2021/03/09 00:12:01;;;;;;;17.77;13.82;;;7.70;61.80;8.00;99544.00;;;;340163;28;85551;-86
2021/03/09 00:12:12;;;;;;;17.13;13.63;;;7.70;61.90;8.00;99541.00;;;;341347;28;91969;-87
2021/03/09 00:12:24;;;;;;;16.23;13.68;;;7.70;62.00;7.90;99546.00;;;;341646;28;86629;-86
2021/03/09 00:12:35;;;;;;;15.63;13.82;;;7.70;62.00;7.90;99547.00;;;;338603;28;92118;-86
2021/03/09 00:12:47;;;;;;;15.98;14.15;;;7.70;62.00;7.90;99550.00;;;;341671;28;84759;-86
2021/03/09 00:12:58;;;;;;;17.48;14.20;;;7.60;62.10;7.90;99547.00;;;;344150;28;89164;-86
2021/03/09 00:13:10;;;;;;;18.38;14.65;;;7.60;62.20;7.90;99548.00;;;;341631;28;84951;-86
2021/03/09 00:13:21;;;;;;;17.95;14.18;;;7.60;62.10;8.00;99550.00;;;;338471;28;89324;-88
2021/03/09 00:13:33;;;;;;;16.35;13.80;;;7.70;62.10;8.00;99552.00;;;;340040;28;86076;-87
2021/03/09 00:13:44;;;;;;;15.63;13.27;;;7.70;62.10;8.00;99547.00;;;;338866;28;87118;-86
2021/03/09 00:13:55;;;;;;;15.73;13.25;;;7.70;62.10;8.00;99543.00;;;;341264;28;85041;-85
2021/03/09 00:14:07;;;;;;;16.15;13.73;;;7.70;62.10;8.00;99542.00;;;;342572;28;88607;-86
2021/03/09 00:14:19;;;;;;;18.17;14.45;;;7.70;62.00;8.00;99543.00;;;;341611;28;86957;-86
2021/03/09 00:14:31;;;;;;;18.65;14.32;;;7.70;62.00;8.00;99545.00;;;;342673;28;92347;-87
2021/03/09 00:14:43;;;;;;;18.15;14.25;;;7.70;62.00;8.00;99545.00;;;;342252;28;86581;-86
2021/03/09 00:15:01;;;;;;;17.13;13.60;;;7.70;62.00;8.00;99545.00;;;;341122;28;91322;-86
2021/03/09 00:15:16;;;;;;;16.33;13.32;;;7.70;62.00;8.00;99541.00;;;;342769;28;84186;-86
2021/03/09 00:15:27;;;;;;;16.17;13.65;;;7.70;61.90;8.10;99547.00;;;;343979;28;88244;-86
2021/03/09 00:15:39;;;;;;;16.30;13.82;;;7.70;61.80;8.00;99547.00;;;;344155;28;85775;-86
2021/03/09 00:15:51;;;;;;;17.00;13.45;;;7.70;61.90;8.00;99547.00;;;;339915;28;92324;-88
2021/03/09 00:16:03;;;;;;;17.20;13.32;;;7.70;61.70;8.10;99549.00;;;;340296;28;86121;-86
2021/03/09 00:16:14;;;;;;;18.02;13.52;;;7.70;61.70;8.10;99553.00;;;;341274;28;91970;-86
2021/03/09 00:16:26;;;;;;;17.23;14.07;;;7.70;61.70;7.90;99552.00;;;;344108;28;85576;-86
2021/03/09 00:16:37;;;;;;;16.58;14.30;;;7.80;61.80;8.00;99551.00;;;;341245;28;90697;-85
2021/03/09 00:16:49;;;;;;;17.25;14.50;;;7.80;61.80;7.90;99542.00;;;;342806;28;84575;-87
2021/03/09 00:17:01;;;;;;;17.42;14.43;;;7.70;61.80;7.80;99547.00;;;;343490;28;88823;-86
2021/03/09 00:17:12;;;;;;;18.25;14.65;;;7.70;61.70;7.90;99537.00;;;;341336;28;87710;-86
2021/03/09 00:17:24;;;;;;;17.30;13.80;;;7.70;61.90;8.00;99543.00;;;;340032;28;89428;-86
2021/03/09 00:17:36;;;;;;;17.60;13.63;;;7.70;61.90;8.00;99545.00;;;;342626;28;83413;-86
2021/03/09 00:17:48;;;;;;;17.70;13.77;;;7.70;61.80;7.90;99546.00;;;;339666;28;90877;-87
2021/03/09 00:17:59;;;;;;;18.20;14.00;;;7.70;61.80;7.80;99542.00;;;;341478;28;87011;-86
2021/03/09 00:18:11;;;;;;;17.30;13.65;;;7.70;61.80;7.80;99552.00;;;;341221;28;90705;-86
2021/03/09 00:18:23;;;;;;;16.98;13.95;;;7.70;61.80;7.90;99551.00;;;;340247;28;87066;-87
2021/03/09 00:18:35;;;;;;;17.35;14.40;;;7.70;61.80;7.90;99541.00;;;;342632;28;90795;-86
2021/03/09 00:18:46;;;;;;;18.98;14.88;;;7.70;62.00;7.90;99550.00;;;;337600;28;87417;-86
2021/03/09 00:18:58;;;;;;;17.70;14.10;;;7.70;62.10;8.00;99550.00;;;;340028;28;89939;-86
2021/03/09 00:19:10;;;;;;;16.83;13.90;;;7.70;62.10;8.00;99553.00;;;;340276;28;85395;-86
2021/03/09 00:19:21;;;;;;;18.50;14.18;;;7.70;62.20;8.00;99551.00;;;;341285;28;90246;-86
2021/03/09 00:19:32;;;;;;;18.23;14.02;;;7.70;62.20;8.00;99547.00;;;;341656;28;85038;-87
2021/03/09 00:19:44;;;;;;;21.17;13.90;;;7.70;62.20;8.00;99548.00;;;;341099;28;90781;-87
2021/03/09 00:19:55;;;;;;;18.92;13.43;;;7.70;62.10;7.90;99553.00;;;;340264;28;83404;-86
2021/03/09 00:20:08;;;;;;;16.23;13.70;;;7.70;61.90;7.80;99562.00;;;;341441;28;88270;-86
2021/03/09 00:20:19;;;;;;;16.20;14.23;;;7.60;61.80;7.80;99557.00;;;;338874;28;83396;-88
2021/03/09 00:20:31;;;;;;;17.35;14.40;;;7.60;61.90;7.80;99551.00;;;;341020;28;90667;-88
2021/03/09 00:20:43;;;;;;;17.05;13.90;;;7.60;62.00;7.90;99553.00;;;;339869;28;84327;-87
2021/03/09 00:20:54;;;;;;;17.02;13.32;;;7.60;61.90;7.80;99548.00;;;;341148;28;91054;-87
2021/03/09 00:21:05;;;;;;;18.10;13.50;;;7.60;61.80;7.70;99551.00;;;;344222;28;87226;-86
2021/03/09 00:21:17;;;;;;;18.13;14.10;;;7.60;61.80;7.80;99549.00;;;;342776;28;86461;-86
2021/03/09 00:21:28;;;;;;;18.40;14.77;;;7.60;61.80;7.80;99547.00;;;;341547;28;87066;-86
2021/03/09 00:21:40;;;;;;;18.63;14.93;;;7.60;62.20;7.90;99549.00;;;;343979;28;91771;-86
2021/03/09 00:21:52;;;;;;;19.98;15.13;;;7.60;62.20;7.90;99545.00;;;;342718;28;86292;-87
2021/03/09 00:22:03;;;;;;;17.48;14.02;;;7.60;62.10;7.90;99548.00;;;;339910;28;92358;-86
2021/03/09 00:22:14;;;;;;;17.55;13.82;;;7.60;62.20;7.80;99543.00;;;;340310;28;84984;-86
2021/03/09 00:22:26;;;;;;;16.95;14.07;;;7.60;62.20;7.70;99553.00;;;;339947;28;91677;-86
2021/03/09 00:22:37;;;;;;;17.30;14.60;;;7.60;62.10;7.80;99555.00;;;;342892;28;87407;-86
2021/03/09 00:22:49;;;;;;;18.55;15.65;;;7.60;62.10;7.80;99538.00;;;;341268;28;92039;-86
2021/03/09 00:23:00;;;;;;;17.40;14.40;;;7.50;62.20;7.80;99544.00;;;;340176;28;87712;-86
2021/03/09 00:23:11;;;;;;;15.98;13.75;;;7.50;62.30;7.80;99556.00;;;;344061;28;90889;-87
2021/03/09 00:23:23;;;;;;;16.35;13.98;;;7.50;62.20;7.80;99547.00;;;;341655;28;85326;-86
2021/03/09 00:23:34;;;;;;;15.80;14.02;;;7.50;62.90;7.80;99555.00;;;;342100;28;91307;-86
2021/03/09 00:23:46;;;;;;;15.18;13.48;;;7.50;62.10;7.80;99550.00;;;;343094;28;86208;-86
2021/03/09 00:23:57;;;;;;;15.30;13.02;;;7.50;62.10;7.80;99544.00;;;;341133;28;89675;-86
2021/03/09 00:24:09;;;;;;;16.50;13.05;;;7.50;62.70;7.80;99544.00;;;;344196;28;86431;-86
2021/03/09 00:24:20;;;;;;;16.73;13.43;;;7.50;62.30;7.80;99548.00;;;;341165;28;91604;-86
2021/03/09 00:24:32;;;;;;;17.73;14.27;;;7.50;62.30;7.80;99549.00;;;;340189;28;86137;-86
2021/03/09 00:24:43;;;;;;;18.08;14.77;;;7.60;62.30;7.90;99551.00;;;;341523;28;91614;-86
2021/03/09 00:24:55;;;;;;;16.80;14.25;;;7.60;62.30;7.90;99548.00;;;;338908;28;87267;-86
2021/03/09 00:25:07;;;;;;;17.23;14.20;;;7.50;62.40;7.90;99546.00;;;;342802;28;90719;-86
2021/03/09 00:25:19;;;;;;;18.40;14.13;;;7.60;62.60;7.90;99545.00;;;;338812;28;87315;-86
2021/03/09 00:25:31;;;;;;;17.60;13.57;;;7.60;62.50;7.80;99536.00;;;;341323;28;90653;-87
2021/03/09 00:25:43;;;;;;;18.23;14.10;;;7.60;62.40;7.90;99540.00;;;;338902;28;86070;-86
2021/03/09 00:25:55;;;;;;;17.60;14.48;;;7.60;62.50;7.80;99544.00;;;;341039;28;90455;-86
2021/03/09 00:26:06;;;;;;;15.52;13.82;;;7.60;62.40;7.70;99549.00;;;;341465;28;85164;-86
2021/03/09 00:26:18;;;;;;;15.93;13.93;;;7.60;62.30;7.80;99540.00;;;;342734;28;89358;-86
2021/03/09 00:26:29;;;;;;;16.50;14.23;;;7.60;62.40;7.80;99542.00;;;;340294;28;84892;-87
2021/03/09 00:26:41;;;;;;;16.10;14.18;;;7.60;62.50;7.90;99541.00;;;;339592;28;91879;-86
2021/03/09 00:26:52;;;;;;;16.08;13.70;;;7.60;62.50;7.90;99542.00;;;;341402;28;84844;-87
2021/03/09 00:27:09;;;;;;;17.80;13.80;;;7.60;62.60;8.00;99545.00;;;;342627;28;90691;-86
2021/03/09 00:27:20;;;;;;;17.83;13.88;;;7.60;62.60;7.90;99535.00;;;;340132;28;85303;-86
2021/03/09 00:27:32;;;;;;;17.45;13.57;;;7.60;62.60;7.80;99538.00;;;;338703;28;88962;-87
2021/03/09 00:27:44;;;;;;;18.08;13.60;;;7.60;62.60;7.80;99542.00;;;;340109;28;87425;-86
2021/03/09 00:27:55;;;;;;;18.48;14.23;;;7.60;62.60;7.70;99544.00;;;;342325;28;89828;-87
2021/03/09 00:28:06;;;;;;;18.45;14.32;;;7.60;62.40;7.90;99547.00;;;;342982;28;84038;-86
2021/03/09 00:28:21;;;;;;;17.73;13.68;;;7.60;62.30;7.90;99550.00;;;;340032;28;89689;-88
2021/03/09 00:28:32;;;;;;;17.48;13.82;;;7.60;62.40;7.90;99542.00;;;;341587;28;84768;-86
2021/03/09 00:28:43;;;;;;;16.27;13.77;;;7.60;62.50;7.90;99537.00;;;;341288;28;91300;-86
2021/03/09 00:28:55;;;;;;;15.30;13.57;;;7.60;62.60;7.90;99545.00;;;;341685;28;84507;-89
2021/03/09 00:29:06;;;;;;;15.65;13.07;;;7.60;62.60;7.90;99547.00;;;;342699;28;90931;-86
2021/03/09 00:29:18;;;;;;;16.88;13.93;;;7.60;62.50;7.90;99539.00;;;;338846;28;85303;-86
2021/03/09 00:29:30;;;;;;;17.67;14.45;;;7.60;62.50;7.90;99535.00;;;;341095;28;91150;-86
2021/03/09 00:29:46;;;;;;;16.70;14.05;;;7.60;63.20;7.90;99552.00;;;;341017;28;86320;-88
2021/03/09 00:29:58;;;;;;;16.98;13.77;;;7.60;62.70;8.00;99544.00;;;;340997;28;91709;-86
2021/03/09 00:30:09;;;;;;;18.25;14.25;;;7.60;62.70;8.00;99542.00;;;;341481;28;87384;-86
2021/03/09 00:30:21;;;;;;;17.67;14.30;;;7.60;62.70;8.00;99552.00;;;;341347;28;91558;-85
2021/03/09 00:30:33;;;;;;;18.45;14.65;;;7.60;62.70;7.90;99542.00;;;;341550;28;86950;-86
2021/03/09 00:30:44;;;;;;;18.30;14.23;;;7.60;62.50;7.90;99540.00;;;;341191;28;88385;-86
2021/03/09 00:30:56;;;;;;;18.42;14.18;;;7.60;62.40;7.90;99544.00;;;;340316;28;85069;-86
2021/03/09 00:31:08;;;;;;;16.67;13.80;;;7.60;62.50;7.90;99546.00;;;;341216;28;89869;-86
2021/03/09 00:31:19;;;;;;;16.33;14.00;;;7.60;62.40;7.90;99542.00;;;;341472;28;87165;-87
2021/03/09 00:31:31;;;;;;;16.20;13.85;;;7.70;62.40;7.80;99551.00;;;;339960;28;92739;-87
2021/03/09 00:31:43;;;;;;;16.83;14.55;;;7.70;62.10;7.70;99548.00;;;;339962;28;87716;-86
2021/03/09 00:31:54;;;;;;;17.13;14.63;;;7.60;62.00;7.80;99544.00;;;;341295;28;91793;-86
2021/03/09 00:32:07;;;;;;;16.67;14.07;;;7.60;62.20;7.80;99542.00;;;;341672;28;83343;-86
2021/03/09 00:32:19;;;;;;;16.17;13.98;;;7.60;62.30;7.80;99543.00;;;;341284;28;91982;-86
2021/03/09 00:32:31;;;;;;;18.00;14.43;;;7.60;62.40;7.80;99549.00;;;;341414;28;86203;-88
2021/03/09 00:32:43;;;;;;;18.92;14.38;;;7.60;62.30;7.80;99542.00;;;;338211;28;91612;-86
2021/03/09 00:32:54;;;;;;;17.88;14.38;;;7.60;62.20;7.80;99549.00;;;;340255;28;87201;-85
2021/03/09 00:33:06;;;;;;;17.52;14.63;;;7.60;62.20;7.80;99545.00;;;;340005;28;90716;-86
2021/03/09 00:33:17;;;;;;;18.02;14.48;;;7.60;62.30;7.70;99548.00;;;;341358;28;85055;-86
2021/03/09 00:33:29;;;;;;;17.65;14.13;;;7.60;62.30;7.70;99547.00;;;;342304;28;91415;-87
2021/03/09 00:33:40;;;;;;;18.60;13.90;;;7.60;62.20;7.80;99550.00;;;;341331;28;85231;-86
2021/03/09 00:33:52;;;;;;;17.90;14.02;;;7.60;62.40;7.80;99550.00;;;;338327;28;91984;-86
2021/03/09 00:34:03;;;;;;;19.50;14.10;;;7.50;62.40;7.80;99548.00;;;;341325;28;83639;-86
2021/03/09 00:34:15;;;;;;;19.20;13.77;;;7.60;62.30;7.80;99543.00;;;;338684;28;90462;-86
2021/03/09 00:34:26;;;;;;;17.80;13.65;;;7.60;62.40;7.90;99539.00;;;;340191;28;87290;-86
2021/03/09 00:34:38;;;;;;;16.35;13.40;;;7.60;62.40;7.90;99545.00;;;;339678;28;91038;-87
2021/03/09 00:34:50;;;;;;;16.60;13.70;;;7.60;62.60;7.90;99543.00;;;;341509;28;86255;-86
2021/03/09 00:35:01;;;;;;;17.75;13.90;;;7.60;62.70;7.90;99538.00;;;;340038;28;88936;-87
2021/03/09 00:35:13;;;;;;;17.77;14.30;;;7.60;62.50;7.80;99550.00;;;;340252;28;83982;-86
2021/03/09 00:35:24;;;;;;;18.27;14.15;;;7.60;62.40;7.80;99546.00;;;;341205;28;91983;-86
2021/03/09 00:35:36;;;;;;;17.88;13.98;;;7.60;62.30;7.80;99544.00;;;;340028;28;87251;-86
2021/03/09 00:35:47;;;;;;;16.17;13.70;;;7.60;62.40;7.80;99547.00;;;;340971;28;89619;-86
2021/03/09 00:35:59;;;;;;;17.17;13.73;;;7.60;62.20;7.80;99548.00;;;;340115;28;87527;-87
2021/03/09 00:36:10;;;;;;;16.92;13.43;;;7.60;62.30;7.80;99547.00;;;;339064;28;88336;-86
2021/03/09 00:36:21;;;;;;;17.27;13.75;;;7.60;62.50;7.80;99545.00;;;;341565;28;86965;-87
2021/03/09 00:36:33;;;;;;;17.17;13.88;;;7.60;62.60;7.90;99537.00;;;;339854;28;91469;-86
2021/03/09 00:36:44;;;;;;;16.63;13.77;;;7.60;62.70;7.90;99548.00;;;;340064;28;87290;-86
2021/03/09 00:36:56;;;;;;;17.63;13.95;;;7.60;62.60;7.90;99547.00;;;;341390;28;90013;-86
2021/03/09 00:37:07;;;;;;;16.88;13.82;;;7.60;62.60;7.90;99542.00;;;;340094;28;86342;-86
2021/03/09 00:37:18;;;;;;;16.65;14.05;;;7.60;62.50;7.90;99546.00;;;;340011;28;89299;-87
2021/03/09 00:37:30;;;;;;;16.52;14.13;;;7.60;62.40;7.90;99546.00;;;;338932;28;86888;-86
2021/03/09 00:37:41;;;;;;;17.88;14.20;;;7.60;62.40;7.90;99548.00;;;;338441;28;92452;-88
2021/03/09 00:37:53;;;;;;;18.13;13.82;;;7.60;62.60;7.90;99544.00;;;;341565;28;83845;-87
2021/03/09 00:38:04;;;;;;;19.70;13.65;;;7.60;62.50;7.90;99546.00;;;;340017;28;90805;-87
2021/03/09 00:38:16;;;;;;;18.40;13.82;;;7.60;62.40;7.80;99545.00;;;;341373;28;85918;-86
2021/03/09 00:38:27;;;;;;;18.38;13.93;;;7.60;62.30;7.80;99542.00;;;;341195;28;90440;-86
2021/03/09 00:38:39;;;;;;;17.75;14.15;;;7.60;62.20;7.60;99542.00;;;;341945;28;87735;-86
2021/03/09 00:38:50;;;;;;;17.20;13.82;;;7.60;62.00;7.70;99551.00;;;;341195;28;90966;-86
2021/03/09 00:39:02;;;;;;;15.82;13.75;;;7.60;62.00;7.80;99542.00;;;;341696;28;84112;-87
2021/03/09 00:39:14;;;;;;;16.67;13.82;;;7.60;62.20;7.60;99548.00;;;;341153;28;89735;-86
2021/03/09 00:39:25;;;;;;;16.88;13.57;;;7.50;62.10;7.50;99548.00;;;;341568;28;84404;-87
2021/03/09 00:39:36;;;;;;;18.96;13.68;;;7.50;62.10;7.60;99544.00;;;;341141;28;91850;-86
2021/03/09 00:39:48;;;;;;;17.94;12.90;;;7.50;62.30;7.60;99550.00;;;;341488;28;87618;-86
2021/03/09 00:40:00;;;;;;;18.55;13.70;;;7.50;62.70;7.70;99557.00;;;;341340;28;87871;-86
2021/03/09 00:40:11;;;;;;;16.38;13.32;;;7.50;62.60;7.60;99544.00;;;;341686;28;84058;-88
2021/03/09 00:40:23;;;;;;;17.38;13.57;;;7.40;62.60;7.60;99551.00;;;;341295;28;91931;-86
2021/03/09 00:40:34;;;;;;;18.73;13.98;;;7.40;62.60;7.60;99548.00;;;;340148;28;87139;-87
2021/03/09 00:40:45;;;;;;;18.35;14.02;;;7.40;62.60;7.60;99544.00;;;;342682;28;91528;-86
2021/03/09 00:40:57;;;;;;;17.60;13.80;;;7.40;62.60;7.60;99548.00;;;;340124;28;86631;-86
2021/03/09 00:41:09;;;;;;;17.33;14.32;;;7.40;62.80;7.70;99549.00;;;;341205;28;91104;-86
2021/03/09 00:41:20;;;;;;;19.75;14.50;;;7.40;62.80;7.70;99552.00;;;;341616;28;83686;-86
2021/03/09 00:41:32;;;;;;;18.75;14.15;;;7.40;62.70;7.70;99547.00;;;;339770;28;89203;-87
2021/03/09 00:41:43;;;;;;;16.90;14.00;;;7.40;62.60;7.60;99539.00;;;;341349;28;87470;-86
2021/03/09 00:41:54;;;;;;;16.40;14.02;;;7.40;62.70;7.70;99554.00;;;;342683;28;89613;-86
2021/03/09 00:42:06;;;;;;;16.42;14.13;;;7.40;62.60;7.70;99547.00;;;;343007;28;84846;-86
2021/03/09 00:42:18;;;;;;;16.45;14.38;;;7.40;62.70;7.70;99553.00;;;;339870;28;92244;-86
2021/03/09 00:42:29;;;;;;;16.85;14.25;;;7.40;62.70;7.70;99556.00;;;;341680;28;84547;-86
2021/03/09 00:42:41;;;;;;;16.38;13.50;;;7.40;62.80;7.70;99557.00;;;;338537;28;91124;-86
2021/03/09 00:42:52;;;;;;;16.25;13.57;;;7.40;62.80;7.70;99553.00;;;;339011;28;83722;-87
2021/03/09 00:43:04;;;;;;;17.08;14.20;;;7.40;62.70;7.60;99551.00;;;;340108;28;88651;-86
2021/03/09 00:43:15;;;;;;;17.17;14.30;;;7.40;62.60;7.70;99546.00;;;;342335;28;83977;-86
2021/03/09 00:43:27;;;;;;;17.20;14.45;;;7.40;62.70;7.70;99554.00;;;;339942;28;91943;-86
2021/03/09 00:43:38;;;;;;;16.33;14.43;;;7.40;62.70;7.80;99556.00;;;;342908;28;85900;-86
2021/03/09 00:43:49;;;;;;;16.25;14.48;;;7.50;62.80;7.80;99553.00;;;;344104;28;89044;-86
2021/03/09 00:44:01;;;;;;;16.65;13.98;;;7.40;62.70;7.80;99551.00;;;;342904;28;87165;-86
2021/03/09 00:44:12;;;;;;;17.42;14.02;;;7.50;63.00;7.80;99549.00;;;;341437;28;89387;-86
2021/03/09 00:44:24;;;;;;;17.35;14.25;;;7.50;63.00;7.80;99550.00;;;;340149;28;87923;-86
2021/03/09 00:44:35;;;;;;;17.23;14.55;;;7.50;62.90;7.80;99554.00;;;;339992;28;88623;-86
2021/03/09 00:44:47;;;;;;;16.63;14.70;;;7.50;62.80;7.80;99552.00;;;;342392;28;83799;-87
2021/03/09 00:44:58;;;;;;;17.13;14.20;;;7.50;62.90;7.80;99555.00;;;;344016;28;89419;-86
2021/03/09 00:45:11;;;;;;;17.60;14.30;;;7.50;63.10;7.80;99554.00;;;;341579;28;86635;-87
2021/03/09 00:45:37;;;;;;;16.70;14.90;;;7.50;63.00;7.80;99552.00;;;;339878;28;92539;-86
2021/03/09 00:45:49;;;;;;;16.13;14.38;;;7.50;62.90;7.90;99551.00;;;;340219;28;87211;-86
2021/03/09 00:46:00;;;;;;;16.38;14.25;;;7.50;62.80;7.90;99554.00;;;;342412;28;90922;-86
2021/03/09 00:46:12;;;;;;;15.98;13.70;;;7.50;62.80;7.90;99546.00;;;;341550;28;87947;-86
2021/03/09 00:46:23;;;;;;;16.25;13.77;;;7.50;62.80;7.80;99557.00;;;;343754;28;90404;-86
2021/03/09 00:46:35;;;;;;;15.18;13.50;;;7.60;62.70;7.80;99554.00;;;;342685;28;86557;-86
2021/03/09 00:46:49;;;;;;;15.55;13.85;;;7.60;62.70;7.90;99554.00;;;;341327;28;91131;-85
2021/03/09 00:47:01;;;;;;;16.55;14.27;;;7.50;62.70;7.90;99556.00;;;;341676;28;83419;-86
2021/03/09 00:47:12;;;;;;;16.40;14.32;;;7.50;62.70;7.80;99565.00;;;;341306;28;91732;-86
2021/03/09 00:47:24;;;;;;;17.00;14.30;;;7.60;62.60;7.70;99555.00;;;;341430;28;86769;-87
2021/03/09 00:47:35;;;;;;;17.65;14.95;;;7.60;62.70;7.80;99552.00;;;;340764;28;91876;-86
2021/03/09 00:47:47;;;;;;;17.75;14.30;;;7.60;62.80;7.70;99561.00;;;;342495;28;86381;-86
2021/03/09 00:47:59;;;;;;;19.77;14.25;;;7.60;62.60;7.70;99563.00;;;;339827;28;92325;-86
2021/03/09 00:48:10;;;;;;;19.95;14.07;;;7.60;62.70;7.70;99552.00;;;;342527;28;84405;-86
2021/03/09 00:48:22;;;;;;;19.95;14.13;;;7.50;62.40;7.70;99556.00;;;;342505;28;92331;-87
2021/03/09 00:48:39;;;;;;;16.92;13.85;;;7.50;62.50;7.70;99562.00;;;;341324;28;86362;-86
2021/03/09 00:48:51;;;;;;;16.58;13.98;;;7.50;62.60;7.70;99565.00;;;;339825;28;90205;-85
2021/03/09 00:49:02;;;;;;;16.30;13.25;;;7.60;62.70;7.60;99556.00;;;;341565;28;86271;-86
2021/03/09 00:49:14;;;;;;;16.85;12.93;;;7.50;62.50;7.60;99549.00;;;;339918;28;91686;-86
2021/03/09 00:49:25;;;;;;;16.58;13.32;;;7.50;62.90;7.60;99561.00;;;;342794;28;87957;-86
2021/03/09 00:49:37;;;;;;;16.42;13.25;;;7.50;62.80;7.70;99561.00;;;;344007;28;91743;-86
2021/03/09 00:49:49;;;;;;;15.95;13.32;;;7.50;62.60;7.70;99555.00;;;;342824;28;86684;-86
2021/03/09 00:50:00;;;;;;;16.63;12.93;;;7.50;62.50;7.70;99562.00;;;;341205;28;92436;-86
2021/03/09 00:50:12;;;;;;;19.50;12.98;;;7.50;62.60;7.60;99562.00;;;;343071;28;83659;-87
2021/03/09 00:50:25;;;;;;;19.40;13.63;;;7.50;62.40;7.50;99556.00;;;;339914;28;91598;-86
2021/03/09 00:50:36;;;;;;;19.10;14.32;;;7.40;62.30;7.50;99563.00;;;;342214;28;84849;-86
2021/03/09 00:50:47;;;;;;;16.50;14.07;;;7.40;62.40;7.50;99561.00;;;;342563;28;91785;-86
2021/03/09 00:50:59;;;;;;;16.25;13.88;;;7.40;62.40;7.40;99557.00;;;;341523;28;87270;-85
2021/03/09 00:51:10;;;;;;;15.48;13.38;;;7.40;62.50;7.40;99569.00;;;;344169;28;88379;-86
2021/03/09 00:51:22;;;;;;;15.68;13.52;;;7.30;62.60;7.50;99564.00;;;;340159;28;87038;-86
2021/03/09 00:51:33;;;;;;;16.05;13.45;;;7.30;62.50;7.50;99553.00;;;;344073;28;89865;-86
2021/03/09 00:51:45;;;;;;;16.80;13.85;;;7.30;62.60;7.60;99556.00;;;;341379;28;86604;-87
2021/03/09 00:51:56;;;;;;;16.20;13.57;;;7.30;62.80;7.50;99563.00;;;;342551;28;89675;-86
2021/03/09 00:52:07;;;;;;;15.90;13.45;;;7.30;62.70;7.40;99554.00;;;;344481;28;84358;-85
2021/03/09 00:52:22;;;;;;;16.13;13.20;;;7.30;62.60;7.50;99561.00;;;;341223;28;90900;-88
2021/03/09 00:52:34;;;;;;;16.98;13.38;;;7.30;62.60;7.60;99556.00;;;;341528;28;87416;-86
2021/03/09 00:52:45;;;;;;;18.38;13.70;;;7.30;62.70;7.60;99556.00;;;;342680;28;88640;-85
2021/03/09 00:52:57;;;;;;;17.98;13.23;;;7.30;62.70;7.60;99553.00;;;;341705;28;84233;-85
2021/03/09 00:53:08;;;;;;;17.38;13.75;;;7.30;62.80;7.50;99557.00;;;;342610;28;91569;-85